createdAt,value
2018-08-04T00:00:35.386Z,26.87
2018-08-04T00:03:04.105Z,26.81
2018-08-04T00:05:32.734Z,26.68
2018-08-04T00:08:01.617Z,26.62
2018-08-04T00:10:30.430Z,26.58
2018-08-04T00:12:59.086Z,26.62
2018-08-04T00:15:27.784Z,26.64
2018-08-04T00:17:56.751Z,26.62
2018-08-04T00:20:25.386Z,26.63
2018-08-04T00:22:54.111Z,26.59
2018-08-04T00:25:22.785Z,26.57
2018-08-04T00:27:51.937Z,26.61
2018-08-04T00:30:20.924Z,26.66
2018-08-04T00:32:49.557Z,26.67
2018-08-04T00:35:18.831Z,26.69
2018-08-04T00:37:47.447Z,26.70
2018-08-04T00:40:16.123Z,26.70
2018-08-04T00:42:44.771Z,26.70
2018-08-04T00:45:13.722Z,26.68
2018-08-04T00:47:42.328Z,26.69
2018-08-04T00:50:11.655Z,26.66
2018-08-04T00:52:40.373Z,26.62
2018-08-04T00:55:09.447Z,26.58
2018-08-04T00:57:38.714Z,26.57
2018-08-04T01:00:08.106Z,26.49
2018-08-04T01:02:37.214Z,26.46
2018-08-04T01:05:06.311Z,26.39
2018-08-04T01:07:35.228Z,26.40
2018-08-04T01:10:05.684Z,26.40
2018-08-04T01:12:34.848Z,26.38
2018-08-04T01:15:03.903Z,26.32
2018-08-04T01:17:32.571Z,26.32
2018-08-04T01:20:05.107Z,26.31
2018-08-04T01:22:35.517Z,26.34
2018-08-04T01:25:04.702Z,26.34
2018-08-04T01:27:33.873Z,26.31
2018-08-04T01:30:02.875Z,26.31
2018-08-04T01:32:31.964Z,26.27
2018-08-04T01:35:00.971Z,26.27
2018-08-04T01:37:30.610Z,26.25
2018-08-04T01:39:59.358Z,26.21
2018-08-04T01:42:28.090Z,26.16
2018-08-04T01:44:57.065Z,26.14
2018-08-04T01:47:25.716Z,26.09
2018-08-04T01:49:54.843Z,26.09
2018-08-04T01:52:23.756Z,26.04
2018-08-04T01:54:52.696Z,26.02
2018-08-04T01:57:21.387Z,26.01
2018-08-04T01:59:50.375Z,26.01
2018-08-04T02:02:19.434Z,25.95
2018-08-04T02:04:48.094Z,25.92
2018-08-04T02:07:16.875Z,25.88
2018-08-04T02:09:45.651Z,25.84
2018-08-04T02:12:14.353Z,25.80
2018-08-04T02:14:43.026Z,25.79
2018-08-04T02:17:11.718Z,25.76
2018-08-04T02:19:40.472Z,25.67
2018-08-04T02:22:09.131Z,25.65
2018-08-04T02:24:37.929Z,25.65
2018-08-04T02:27:06.574Z,25.65
2018-08-04T02:29:35.311Z,25.64
2018-08-04T02:32:04.034Z,25.66
2018-08-04T02:34:32.891Z,25.64
2018-08-04T02:37:01.847Z,25.62
2018-08-04T02:39:31.007Z,25.56
2018-08-04T02:41:59.827Z,25.49
2018-08-04T02:44:28.606Z,25.49
2018-08-04T02:46:57.360Z,25.50
2018-08-04T02:49:26.115Z,25.49
2018-08-04T02:51:54.812Z,25.47
2018-08-04T02:54:23.494Z,25.43
2018-08-04T02:56:52.303Z,25.38
2018-08-04T02:59:21.436Z,25.37
2018-08-04T03:01:50.144Z,25.38
2018-08-04T03:04:19.138Z,25.33
2018-08-04T03:06:48.061Z,25.33
2018-08-04T03:09:16.724Z,25.28
2018-08-04T03:11:45.419Z,25.16
2018-08-04T03:14:14.631Z,25.16
2018-08-04T03:16:43.929Z,25.18
2018-08-04T03:19:12.556Z,25.19
2018-08-04T03:21:41.531Z,25.13
2018-08-04T03:24:10.176Z,25.08
2018-08-04T03:26:38.807Z,25.05
2018-08-04T03:29:07.486Z,25.09
2018-08-04T03:31:36.168Z,25.10
2018-08-04T03:34:05.099Z,25.13
2018-08-04T03:36:34.058Z,25.15
2018-08-04T03:39:02.797Z,25.13
2018-08-04T03:41:31.531Z,25.12
2018-08-04T03:44:00.527Z,25.10
2018-08-04T03:46:29.153Z,25.09
2018-08-04T03:48:57.793Z,25.06
2018-08-04T03:51:26.500Z,25.03
2018-08-04T03:53:55.125Z,25.03
2018-08-04T03:56:23.854Z,25.04
2018-08-04T03:58:53.521Z,25.07
2018-08-04T04:01:22.138Z,25.06
2018-08-04T04:03:51.647Z,25.08
2018-08-04T04:06:20.638Z,25.06
2018-08-04T04:08:49.500Z,25.03
2018-08-04T04:11:18.423Z,24.92
2018-08-04T04:13:47.068Z,24.94
2018-08-04T04:16:15.713Z,24.98
2018-08-04T04:18:44.656Z,25.01
2018-08-04T04:21:13.392Z,25.03
2018-08-04T04:23:42.038Z,25.06
2018-08-04T04:26:11.166Z,25.07
2018-08-04T04:28:39.824Z,25.05
2018-08-04T04:31:08.833Z,25.03
2018-08-04T04:33:37.465Z,25.06
2018-08-04T04:36:06.110Z,25.07
2018-08-04T04:38:35.011Z,25.06
2018-08-04T04:41:03.710Z,25.08
2018-08-04T04:43:32.383Z,25.06
2018-08-04T04:46:01.022Z,25.08
2018-08-04T04:48:29.920Z,25.08
2018-08-04T04:50:58.573Z,25.11
2018-08-04T04:53:27.288Z,25.13
2018-08-04T04:55:56.179Z,25.12
2018-08-04T04:58:24.809Z,25.16
2018-08-04T05:00:53.422Z,25.17
2018-08-04T05:03:22.389Z,25.20
2018-08-04T05:05:51.023Z,25.24
2018-08-04T05:08:20.038Z,25.27
2018-08-04T05:10:48.924Z,25.28
2018-08-04T05:13:17.712Z,25.30
2018-08-04T05:15:46.324Z,25.31
2018-08-04T05:18:14.960Z,25.30
2018-08-04T05:20:43.918Z,25.32
2018-08-04T05:23:13.013Z,25.36
2018-08-04T05:25:42.298Z,25.39
2018-08-04T05:28:10.922Z,25.42
2018-08-04T05:30:39.607Z,25.39
2018-08-04T05:33:08.228Z,25.44
2018-08-04T05:35:37.228Z,25.47
2018-08-04T05:38:05.872Z,25.44
2018-08-04T05:40:34.526Z,25.47
2018-08-04T05:43:03.165Z,25.50
2018-08-04T05:45:32.137Z,25.55
2018-08-04T05:48:00.854Z,25.53
2018-08-04T05:50:29.808Z,25.56
2018-08-04T05:52:59.478Z,25.46
2018-08-04T05:55:28.249Z,25.52
2018-08-04T05:57:56.991Z,25.59
2018-08-04T06:00:25.622Z,25.66
2018-08-04T06:02:54.566Z,25.64
2018-08-04T06:05:23.207Z,25.66
2018-08-04T06:07:52.331Z,25.65
2018-08-04T06:10:21.974Z,25.74
2018-08-04T06:12:51.261Z,25.83
2018-08-04T06:15:19.942Z,25.91
2018-08-04T06:17:48.936Z,26.04
2018-08-04T06:20:17.574Z,26.10
2018-08-04T06:22:46.214Z,26.25
2018-08-04T06:25:14.908Z,26.33
2018-08-04T06:27:43.743Z,26.43
2018-08-04T06:30:14.614Z,26.51
2018-08-04T06:32:43.741Z,26.64
2018-08-04T06:35:13.020Z,26.82
2018-08-04T06:37:41.762Z,27.05
2018-08-04T06:40:10.996Z,27.27
2018-08-04T06:42:39.918Z,27.43
2018-08-04T06:45:08.947Z,27.61
2018-08-04T06:47:37.666Z,27.88
2018-08-04T06:50:07.451Z,28.09
2018-08-04T06:52:36.520Z,28.22
2018-08-04T06:55:05.643Z,28.35
2018-08-04T06:57:34.276Z,28.47
2018-08-04T07:00:03.231Z,28.45
2018-08-04T07:02:32.241Z,28.66
2018-08-04T07:05:00.990Z,28.77
2018-08-04T07:07:29.652Z,28.90
2018-08-04T07:09:58.321Z,28.88
2018-08-04T07:12:27.498Z,28.82
2018-08-04T07:14:56.133Z,28.87
2018-08-04T07:17:24.854Z,28.77
2018-08-04T07:19:53.868Z,28.89
2018-08-04T07:22:22.526Z,28.80
2018-08-04T07:24:52.094Z,28.85
2018-08-04T07:27:21.033Z,28.87
2018-08-04T07:29:49.985Z,28.83
2018-08-04T07:32:18.654Z,29.01
2018-08-04T07:34:47.593Z,28.87
2018-08-04T07:37:16.223Z,28.91
2018-08-04T07:39:44.859Z,28.99
2018-08-04T07:42:13.896Z,28.90
2018-08-04T07:44:42.819Z,28.88
2018-08-04T07:47:11.530Z,28.81
2018-08-04T07:49:40.526Z,28.80
2018-08-04T07:52:09.229Z,28.76
2018-08-04T07:54:38.428Z,28.70
2018-08-04T07:57:07.127Z,28.83
2018-08-04T07:59:36.604Z,28.93
2018-08-04T08:02:06.864Z,29.04
2018-08-04T08:04:35.809Z,29.19
2018-08-04T08:07:05.115Z,29.22
2018-08-04T08:09:34.343Z,29.44
2018-08-04T08:12:03.126Z,29.66
2018-08-04T08:14:32.086Z,29.93
2018-08-04T08:17:00.699Z,30.03
2018-08-04T08:19:29.403Z,30.32
2018-08-04T08:21:58.454Z,30.66
2018-08-04T08:24:27.158Z,31.00
2018-08-04T08:26:55.797Z,31.33
2018-08-04T08:29:24.478Z,31.64
2018-08-04T08:31:53.121Z,31.94
2018-08-04T08:34:22.296Z,32.13
2018-08-04T08:36:51.070Z,32.63
2018-08-04T08:39:19.786Z,33.03
2018-08-04T08:41:48.766Z,33.44
2018-08-04T08:44:17.670Z,33.63
2018-08-04T08:46:46.550Z,33.59
2018-08-04T08:49:15.211Z,33.83
2018-08-04T08:51:43.929Z,33.77
2018-08-04T08:54:12.795Z,33.76
2018-08-04T08:56:41.319Z,33.76
2018-08-04T08:59:10.244Z,33.79
2018-08-04T09:01:39.012Z,34.13
2018-08-04T09:04:08.291Z,34.30
2018-08-04T09:06:36.927Z,34.31
2018-08-04T09:09:08.451Z,34.27
2018-08-04T09:11:37.174Z,34.07
2018-08-04T09:14:05.907Z,34.09
2018-08-04T09:16:34.645Z,34.28
2018-08-04T09:19:03.288Z,34.41
2018-08-04T09:21:32.048Z,34.68
2018-08-04T09:24:00.678Z,34.81
2018-08-04T09:26:29.555Z,34.48
2018-08-04T09:28:58.243Z,34.61
2018-08-04T09:31:26.938Z,34.70
2018-08-04T09:33:55.535Z,34.87
2018-08-04T09:36:24.939Z,34.97
2018-08-04T09:38:53.557Z,34.98
2018-08-04T09:41:22.265Z,35.07
2018-08-04T09:43:51.352Z,34.92
2018-08-04T09:46:20.581Z,34.54
2018-08-04T09:48:49.341Z,34.32
2018-08-04T09:51:18.640Z,33.99
2018-08-04T09:53:47.582Z,33.71
2018-08-04T09:56:16.282Z,33.61
2018-08-04T09:58:44.934Z,33.60
2018-08-04T10:01:18.716Z,33.56
2018-08-04T10:03:47.385Z,33.44
2018-08-04T10:06:16.365Z,33.32
2018-08-04T10:08:45.293Z,33.33
2018-08-04T10:11:14.278Z,33.34
2018-08-04T10:13:43.410Z,33.39
2018-08-04T10:16:12.653Z,33.24
2018-08-04T10:18:41.582Z,33.37
2018-08-04T10:21:10.626Z,33.49
2018-08-04T10:23:39.599Z,33.49
2018-08-04T10:26:08.614Z,33.59
2018-08-04T10:28:37.347Z,33.71
2018-08-04T10:31:06.257Z,33.95
2018-08-04T10:33:34.890Z,33.74
2018-08-04T10:36:03.835Z,33.87
2018-08-04T10:38:32.627Z,33.94
2018-08-04T10:41:01.246Z,34.27
2018-08-04T10:43:30.189Z,34.44
2018-08-04T10:45:58.882Z,34.55
2018-08-04T10:48:27.598Z,34.51
2018-08-04T10:50:56.877Z,34.39
2018-08-04T10:53:26.035Z,34.30
2018-08-04T10:55:55.074Z,34.43
2018-08-04T10:58:24.031Z,34.69
2018-08-04T11:00:52.685Z,34.84
2018-08-04T11:03:21.328Z,34.78
2018-08-04T11:05:50.370Z,34.43
2018-08-04T11:08:19.036Z,34.34
2018-08-04T11:10:47.935Z,34.13
2018-08-04T11:13:16.664Z,33.89
2018-08-04T11:15:45.864Z,33.51
2018-08-04T11:18:14.537Z,33.43
2018-08-04T11:20:43.220Z,33.42
2018-08-04T11:23:12.166Z,33.34
2018-08-04T11:25:40.864Z,33.33
2018-08-04T11:28:09.584Z,33.36
2018-08-04T11:30:38.234Z,33.39
2018-08-04T11:33:07.163Z,33.41
2018-08-04T11:35:36.422Z,33.56
2018-08-04T11:38:06.264Z,33.90
2018-08-04T11:40:35.185Z,34.11
2018-08-04T11:43:04.139Z,34.28
2018-08-04T11:45:33.283Z,34.30
2018-08-04T11:48:01.973Z,33.76
2018-08-04T11:50:30.607Z,33.61
2018-08-04T11:52:59.811Z,33.51
2018-08-04T11:55:28.468Z,33.47
2018-08-04T11:57:57.458Z,33.93
2018-08-04T12:00:26.231Z,34.77
2018-08-04T12:02:54.887Z,35.80
2018-08-04T12:05:23.566Z,35.79
2018-08-04T12:07:52.695Z,35.47
2018-08-04T12:10:21.665Z,36.01
2018-08-04T12:12:50.583Z,37.57
2018-08-04T12:15:19.567Z,37.50
2018-08-04T12:17:48.234Z,37.03
2018-08-04T12:20:17.231Z,36.59
2018-08-04T12:22:46.153Z,36.33
2018-08-04T12:25:15.270Z,36.37
2018-08-04T12:27:43.975Z,36.40
2018-08-04T12:30:12.667Z,36.20
2018-08-04T12:32:42.023Z,36.15
2018-08-04T12:35:11.016Z,36.83
2018-08-04T12:37:40.866Z,38.23
2018-08-04T12:40:09.939Z,39.47
2018-08-04T12:42:38.863Z,40.17
2018-08-04T12:45:07.937Z,40.07
2018-08-04T12:47:36.919Z,40.11
2018-08-04T12:50:05.706Z,38.92
2018-08-04T12:52:34.381Z,38.90
2018-08-04T12:55:03.047Z,39.64
2018-08-04T12:57:31.728Z,41.18
2018-08-04T13:00:00.827Z,43.00
2018-08-04T13:02:29.565Z,42.68
2018-08-04T13:04:58.609Z,41.72
2018-08-04T13:07:27.256Z,41.73
2018-08-04T13:09:56.091Z,43.09
2018-08-04T13:12:24.782Z,43.33
2018-08-04T13:14:53.446Z,42.05
2018-08-04T13:17:22.041Z,42.03
2018-08-04T13:19:50.685Z,41.89
2018-08-04T13:22:19.348Z,40.86
2018-08-04T13:24:48.133Z,40.96
2018-08-04T13:27:17.699Z,42.37
2018-08-04T13:29:46.440Z,44.12
2018-08-04T13:32:16.249Z,45.63
2018-08-04T13:34:44.947Z,46.42
2018-08-04T13:37:13.629Z,47.45
2018-08-04T13:39:42.650Z,47.97
2018-08-04T13:42:11.394Z,47.90
2018-08-04T13:44:40.170Z,46.64
2018-08-04T13:47:09.225Z,46.73
2018-08-04T13:49:37.930Z,47.31
2018-08-04T13:52:06.937Z,47.78
2018-08-04T13:54:35.826Z,47.53
2018-08-04T13:57:04.489Z,47.03
2018-08-04T13:59:35.748Z,47.29
2018-08-04T14:02:04.604Z,47.53
2018-08-04T14:04:33.273Z,47.60
2018-08-04T14:07:02.464Z,47.81
2018-08-04T14:09:31.201Z,47.17
2018-08-04T14:11:59.957Z,45.55
2018-08-04T14:14:28.592Z,43.30
2018-08-04T14:16:57.267Z,41.21
2018-08-04T14:19:26.131Z,39.43
2018-08-04T14:21:56.097Z,38.07
2018-08-04T14:24:25.739Z,37.09
2018-08-04T14:26:54.542Z,36.72
2018-08-04T14:29:23.301Z,38.45
2018-08-04T14:31:52.394Z,40.55
2018-08-04T14:34:21.485Z,41.42
2018-08-04T14:36:50.345Z,41.70
2018-08-04T14:39:19.423Z,41.77
2018-08-04T14:41:48.165Z,41.81
2018-08-04T14:44:17.497Z,41.62
2018-08-04T14:46:46.259Z,41.34
2018-08-04T14:49:15.847Z,40.99
2018-08-04T14:51:45.573Z,40.66
2018-08-04T14:54:14.281Z,39.97
2018-08-04T14:56:43.024Z,39.33
2018-08-04T14:59:11.964Z,38.72
2018-08-04T15:01:40.773Z,38.38
2018-08-04T15:04:09.759Z,38.01
2018-08-04T15:06:38.595Z,37.49
2018-08-04T15:09:09.602Z,36.93
2018-08-04T15:11:38.524Z,36.78
2018-08-04T15:14:07.290Z,36.39
2018-08-04T15:16:36.075Z,35.94
2018-08-04T15:19:04.829Z,35.50
2018-08-04T15:21:33.572Z,35.39
2018-08-04T15:24:02.805Z,35.25
2018-08-04T15:26:31.913Z,35.23
2018-08-04T15:29:00.942Z,35.19
2018-08-04T15:31:30.049Z,35.14
2018-08-04T15:33:58.728Z,35.02
2018-08-04T15:36:27.330Z,34.87
2018-08-04T15:38:56.526Z,34.76
2018-08-04T15:41:25.149Z,34.68
2018-08-04T15:43:54.454Z,34.60
2018-08-04T15:46:23.117Z,34.50
2018-08-04T15:48:51.749Z,34.40
2018-08-04T15:51:20.798Z,34.29
2018-08-04T15:53:49.552Z,34.25
2018-08-04T15:56:18.310Z,34.16
2018-08-04T15:58:47.389Z,34.08
2018-08-04T16:01:16.083Z,33.98
2018-08-04T16:03:44.844Z,33.92
2018-08-04T16:06:13.736Z,33.86
2018-08-04T16:08:42.395Z,33.75
2018-08-04T16:11:11.142Z,33.63
2018-08-04T16:13:40.110Z,33.53
2018-08-04T16:16:09.091Z,33.45
2018-08-04T16:18:37.747Z,33.38
2018-08-04T16:21:07.080Z,33.27
2018-08-04T16:23:36.153Z,33.20
2018-08-04T16:26:05.772Z,33.08
2018-08-04T16:28:34.433Z,32.98
2018-08-04T16:31:03.570Z,32.87
2018-08-04T16:33:32.321Z,32.78
2018-08-04T16:36:01.110Z,32.72
2018-08-04T16:38:30.168Z,32.65
2018-08-04T16:40:58.950Z,32.55
2018-08-04T16:43:27.950Z,32.50
2018-08-04T16:45:56.940Z,32.45
2018-08-04T16:48:27.754Z,32.38
2018-08-04T16:50:56.594Z,32.39
2018-08-04T16:53:25.265Z,32.31
2018-08-04T16:55:54.538Z,32.29
2018-08-04T16:58:23.529Z,32.23
2018-08-04T17:00:52.251Z,32.17
2018-08-04T17:03:20.990Z,32.14
2018-08-04T17:05:49.745Z,32.09
2018-08-04T17:08:18.378Z,32.05
2018-08-04T17:10:47.003Z,31.99
2018-08-04T17:13:16.059Z,31.94
2018-08-04T17:15:44.690Z,31.90
2018-08-04T17:18:13.760Z,31.83
2018-08-04T17:20:42.361Z,31.79
2018-08-04T17:23:11.024Z,31.75
2018-08-04T17:25:39.645Z,31.73
2018-08-04T17:28:08.898Z,31.69
2018-08-04T17:30:37.577Z,31.63
2018-08-04T17:33:06.777Z,31.59
2018-08-04T17:35:35.984Z,31.55
2018-08-04T17:38:05.172Z,31.50
2018-08-04T17:40:33.830Z,31.46
2018-08-04T17:43:02.478Z,31.46
2018-08-04T17:45:31.116Z,31.40
2018-08-04T17:47:59.773Z,31.37
2018-08-04T17:50:28.713Z,31.31
2018-08-04T17:52:57.844Z,31.29
2018-08-04T17:55:26.899Z,31.25
2018-08-04T17:57:55.664Z,31.22
2018-08-04T18:00:24.329Z,31.19
2018-08-04T18:02:52.976Z,31.15
2018-08-04T18:05:22.032Z,31.08
2018-08-04T18:07:50.701Z,31.03
2018-08-04T18:10:19.702Z,31.00
2018-08-04T18:12:48.363Z,30.95
2018-08-04T18:15:17.533Z,30.90
2018-08-04T18:17:46.491Z,30.85
2018-08-04T18:20:15.301Z,30.80
2018-08-04T18:22:44.231Z,30.74
2018-08-04T18:25:13.071Z,30.74
2018-08-04T18:27:41.762Z,30.67
2018-08-04T18:30:10.693Z,30.67
2018-08-04T18:32:40.102Z,30.62
2018-08-04T18:35:09.130Z,30.56
2018-08-04T18:37:37.776Z,30.51
2018-08-04T18:40:06.418Z,30.48
2018-08-04T18:42:35.062Z,30.46
2018-08-04T18:45:04.035Z,30.40
2018-08-04T18:47:32.670Z,30.34
2018-08-04T18:50:01.550Z,30.31
2018-08-04T18:52:30.150Z,30.25
2018-08-04T18:54:59.037Z,30.20
2018-08-04T18:57:27.717Z,30.16
2018-08-04T18:59:56.368Z,30.12
2018-08-04T19:02:25.554Z,30.12
2018-08-04T19:04:54.234Z,30.09
2018-08-04T19:07:22.913Z,30.06
2018-08-04T19:09:52.150Z,30.02
2018-08-04T19:12:20.837Z,29.98
2018-08-04T19:14:49.445Z,29.94
2018-08-04T19:17:18.624Z,29.92
2018-08-04T19:19:48.106Z,29.88
2018-08-04T19:22:16.741Z,29.87
2018-08-04T19:24:45.663Z,29.86
2018-08-04T19:27:15.653Z,29.83
2018-08-04T19:29:44.303Z,29.80
2018-08-04T19:32:13.699Z,29.77
2018-08-04T19:34:42.690Z,29.79
2018-08-04T19:37:11.466Z,29.79
2018-08-04T19:39:40.041Z,29.74
2018-08-04T19:42:09.106Z,29.71
2018-08-04T19:44:37.763Z,29.70
2018-08-04T19:47:06.447Z,29.58
2018-08-04T19:49:35.434Z,29.50
2018-08-04T19:52:04.110Z,29.44
2018-08-04T19:54:32.790Z,29.31
2018-08-04T19:57:01.813Z,29.24
2018-08-04T19:59:30.776Z,29.24
2018-08-04T20:01:59.442Z,29.13
2018-08-04T20:04:28.080Z,29.05
2018-08-04T20:06:57.067Z,29.03
2018-08-04T20:09:25.716Z,28.99
2018-08-04T20:11:54.715Z,29.02
2018-08-04T20:14:23.812Z,28.98
2018-08-04T20:16:52.728Z,28.92
2018-08-04T20:19:21.385Z,28.89
2018-08-04T20:21:50.411Z,28.83
2018-08-04T20:24:19.161Z,28.75
2018-08-04T20:26:48.217Z,28.70
2018-08-04T20:29:16.953Z,28.66
2018-08-04T20:31:45.578Z,28.58
2018-08-04T20:34:14.346Z,28.54
2018-08-04T20:36:43.785Z,28.53
2018-08-04T20:39:12.530Z,28.54
2018-08-04T20:41:41.197Z,28.54
2018-08-04T20:44:10.673Z,28.61
2018-08-04T20:46:39.472Z,28.50
2018-08-04T20:49:08.419Z,28.44
2018-08-04T20:51:37.627Z,28.40
2018-08-04T20:54:07.058Z,28.38
2018-08-04T20:56:35.871Z,28.39
2018-08-04T20:59:05.118Z,28.35
2018-08-04T21:01:37.502Z,28.36
2018-08-04T21:04:06.178Z,28.26
2018-08-04T21:06:34.802Z,28.23
2018-08-04T21:09:04.297Z,28.20
2018-08-04T21:11:33.197Z,28.21
2018-08-04T21:14:02.974Z,28.18
2018-08-04T21:16:31.668Z,28.17
2018-08-04T21:19:00.922Z,28.19
2018-08-04T21:21:29.850Z,28.19
2018-08-04T21:23:59.053Z,28.20
2018-08-04T21:26:28.112Z,28.19
2018-08-04T21:28:56.957Z,28.16
2018-08-04T21:31:25.639Z,28.08
2018-08-04T21:33:54.846Z,28.05
2018-08-04T21:36:23.832Z,28.00
2018-08-04T21:38:52.622Z,28.04
2018-08-04T21:41:21.314Z,27.98
2018-08-04T21:43:50.036Z,27.95
2018-08-04T21:46:18.809Z,27.90
2018-08-04T21:48:47.767Z,27.85
2018-08-04T21:51:16.760Z,27.78
2018-08-04T21:53:45.787Z,27.76
2018-08-04T21:56:14.818Z,27.75
2018-08-04T21:58:43.747Z,27.73
2018-08-04T22:01:12.460Z,27.73
2018-08-04T22:03:42.962Z,27.73
2018-08-04T22:06:12.385Z,27.72
2018-08-04T22:08:52.153Z,27.72
2018-08-04T22:11:21.251Z,27.69
2018-08-04T22:13:50.073Z,27.67
2018-08-04T22:16:19.051Z,27.63
2018-08-04T22:18:47.778Z,27.63
2018-08-04T22:21:16.576Z,27.62
2018-08-04T22:23:45.667Z,27.61
2018-08-04T22:26:14.285Z,27.61
2018-08-04T22:28:43.397Z,27.60
2018-08-04T22:31:12.649Z,27.58
2018-08-04T22:33:41.347Z,27.55
2018-08-04T22:36:10.053Z,27.51
2018-08-04T22:38:38.798Z,27.51
2018-08-04T22:41:07.802Z,27.47
2018-08-04T22:43:36.867Z,27.47
2018-08-04T22:46:14.713Z,27.47
2018-08-04T22:48:45.591Z,27.45
2018-08-04T22:51:14.329Z,27.38
2018-08-04T22:53:42.932Z,27.33
2018-08-04T22:56:11.639Z,27.34
2018-08-04T22:58:40.684Z,27.34
2018-08-04T23:01:09.812Z,27.34
2018-08-04T23:03:38.554Z,27.34
2018-08-04T23:06:07.492Z,27.33
2018-08-04T23:08:36.158Z,27.33
2018-08-04T23:11:04.821Z,27.32
2018-08-04T23:13:33.797Z,27.26
2018-08-04T23:16:02.887Z,27.25
2018-08-04T23:18:31.644Z,27.21
2018-08-04T23:21:00.739Z,27.21
2018-08-04T23:23:30.645Z,27.14
2018-08-04T23:25:59.297Z,27.09
2018-08-04T23:28:28.624Z,27.06
2018-08-04T23:30:57.489Z,27.04
2018-08-04T23:33:26.770Z,27.04
2018-08-04T23:35:55.433Z,27.00
2018-08-04T23:38:24.573Z,26.98
2018-08-04T23:40:53.233Z,26.96
2018-08-04T23:43:21.894Z,26.91
2018-08-04T23:45:50.927Z,26.86
2018-08-04T23:48:19.618Z,26.85
2018-08-04T23:50:48.638Z,26.85
2018-08-04T23:53:17.358Z,26.85
2018-08-04T23:55:46.082Z,26.99
2018-08-04T23:58:15.243Z,27.09
